Virginiborg — PBDL — position and weather

sailwx.info

Track history (hours):
 
Tides and Currents Weather Stations Pressure Air Temp Water Temp Dewpoint Dewpoint Depression Visibility Wind Speed Wind Dir Waves Ship Positions

Virginiborg

Last reported at 2017-Apr-26 15:48 UTC. Time now 2017-Apr-28 17:59 UTC.
Position N 60°21' E 019°01'.

Length 132 m; draft 6.3 m.

Type: Cargo ship. MMSI: 244632000.

Date/timePositionNaut miles runAvg speedWind from/ knotsBaromVisibWave heightAir tempDewpointWater temp
2017-Apr-26 15:48N 60°21' E 019°01'411.8
2017-Apr-26 15:30N 60°18' E 019°01'611.7
2017-Apr-26 15:00N 60°12' E 019°04'711.9
2017-Apr-26 14:26N 60°07' E 019°13'1111.9
2017-Apr-26 13:30N 59°58' E 019°28'611.3
2017-Apr-26 12:59N 59°54' E 019°35'29210.7
2017-Apr-25 09:38N 55°36' E 015°19'212.7
2017-Apr-25 09:30N 55°36' E 015°16'612.6
2017-Apr-25 09:00N 55°33' E 015°07'612.6
2017-Apr-25 08:30N 55°29' E 014°57'612.6
2017-Apr-25 08:00N 55°26' E 014°47'612.4
2017-Apr-25 07:31N 55°23' E 014°38'612.4
2017-Apr-25 07:01N 55°18' E 014°31'612.0
2017-Apr-25 06:30N 55°14' E 014°25'510.9
2017-Apr-25 06:01N 55°10' E 014°18'611.6
2017-Apr-25 05:30N 55°10' E 014°07'611.5
2017-Apr-25 04:57N 55°10' E 013°57'2911.6
2017-Apr-25 02:26N 55°14' E 013°06'511.9
2017-Apr-25 02:00N 55°14' E 012°57'611.8
2017-Apr-25 01:29N 55°16' E 012°46'611.7
2017-Apr-25 01:00N 55°18' E 012°37'611.7
2017-Apr-25 00:30N 55°24' E 012°39'611.6
2017-Apr-25 00:00N 55°30' E 012°41'611.2
2017-Apr-24 23:30N 55°35' E 012°42'612.1
2017-Apr-24 23:00N 55°41' E 012°41'612.2
2017-Apr-24 22:30N 55°47' E 012°41'612.3
2017-Apr-24 22:00N 55°54' E 012°39'612.3
2017-Apr-24 21:30N 55°60' E 012°38'611.5
2017-Apr-24 21:00N 56°05' E 012°35'612.6
2017-Apr-24 20:30N 56°09' E 012°26'612.2
2017-Apr-24 20:00N 56°12' E 012°17'7211.6
2017-Apr-24 13:50N 57°19' E 011°28'411.7
2017-Apr-24 13:29N 57°23' E 011°26'511.3
2017-Apr-24 13:00N 57°28' E 011°22'611.8
2017-Apr-24 12:30N 57°32' E 011°14'611.6
2017-Apr-24 12:01N 57°36' E 011°06'612.0
2017-Apr-24 11:30N 57°40' E 010°58'611.9
2017-Apr-24 11:00N 57°44' E 010°50'611.8
2017-Apr-24 10:30N 57°47' E 010°41'713.3
2017-Apr-24 10:00N 57°47' E 010°28'813.0
2017-Apr-24 09:23N 57°45' E 010°14'7112.6
2017-Apr-24 03:42N 57°11' E 008°17'212.1
2017-Apr-24 03:30N 57°09' E 008°14'611.8
2017-Apr-24 03:00N 57°04' E 008°08'611.7
2017-Apr-24 02:30N 56°59' E 008°03'611.7
2017-Apr-24 01:59N 56°54' E 007°57'611.7
2017-Apr-24 01:30N 56°49' E 007°52'242 9.8
2017-Apr-23 00:44N 53°15' E 004°35'3 9.9
2017-Apr-23 00:25N 53°12' E 004°33'4 9.8
2017-Apr-23 00:00N 53°08' E 004°30'5 9.8
2017-Apr-22 23:30N 53°04' E 004°26'5 9.6
2017-Apr-22 22:59N 52°60' E 004°22'5 9.2
2017-Apr-22 22:26N 52°55' E 004°18'4 9.3
2017-Apr-22 22:00N 52°52' E 004°15'13 8.9
2017-Apr-22 20:36N 52°41' E 004°04'1 8.7
2017-Apr-22 20:28N 52°40' E 004°03'16 8.7
2017-Apr-22 18:41N 52°26' E 003°54'3 8.8
2017-Apr-22 18:23N 52°23' E 003°53'3 8.5
2017-Apr-22 18:00N 52°20' E 003°52'4 8.5
2017-Apr-22 17:30N 52°16' E 003°52'5 9.0
2017-Apr-22 17:00N 52°11' E 003°53'5 9.0
2017-Apr-22 16:30N 52°07' E 003°55'4 8.8
2017-Apr-22 16:00N 52°02' E 003°54'510.7
2017-Apr-22 15:30N 51°60' E 004°02'612.9
2017-Apr-22 15:01N 51°57' E 004°11'713.1
2017-Apr-22 14:31N 51°53' E 004°19'9 9.2
2017-Apr-22 13:31N 51°50' E 004°33'4 7.3
2017-Apr-22 13:01N 51°48' E 004°38'0 0.6
2017-Apr-22 12:27N 51°48' E 004°39'0 0.0
2017-Apr-22 12:01N 51°48' E 004°39'0 0.0
2017-Apr-22 11:31N 51°48' E 004°39'0 0.0
2017-Apr-22 11:01N 51°48' E 004°39'0 0.0
2017-Apr-22 10:30N 51°48' E 004°39'0 0.0
2017-Apr-22 10:01N 51°48' E 004°39'0 0.0
2017-Apr-22 09:30N 51°48' E 004°39'0 0.0
2017-Apr-22 09:00N 51°48' E 004°39'0 0.0
2017-Apr-22 08:31N 51°48' E 004°39'0 0.0
2017-Apr-22 08:00N 51°48' E 004°39'0 0.0
2017-Apr-22 07:30N 51°48' E 004°39'0 0.0
2017-Apr-22 07:01N 51°48' E 004°39'0 0.0
2017-Apr-22 06:31N 51°48' E 004°39'0 0.0
2017-Apr-22 06:00N 51°48' E 004°39'0 0.0
2017-Apr-22 05:30N 51°48' E 004°39'0 0.0
2017-Apr-22 05:00N 51°48' E 004°39'0 0.0
2017-Apr-22 04:30N 51°48' E 004°39'0 0.0
2017-Apr-22 04:01N 51°48' E 004°39'0 0.0
2017-Apr-22 03:29N 51°48' E 004°39'0 0.0
2017-Apr-22 03:00N 51°48' E 004°39'0 0.0
2017-Apr-22 02:31N 51°48' E 004°39'0 0.0
2017-Apr-22 02:01N 51°48' E 004°39'0 0.0
2017-Apr-22 01:31N 51°48' E 004°39'0 0.0
2017-Apr-22 01:00N 51°48' E 004°39'0 0.0
2017-Apr-22 00:31N 51°48' E 004°39'0 0.0
2017-Apr-22 00:01N 51°48' E 004°39'0 0.0
2017-Apr-21 23:31N 51°48' E 004°39'0 0.0
2017-Apr-21 23:00N 51°48' E 004°39'0 0.0
2017-Apr-21 22:31N 51°48' E 004°39'0 0.0
2017-Apr-21 22:01N 51°48' E 004°39'0 0.0
2017-Apr-21 21:31N 51°48' E 004°39'0 0.0
2017-Apr-21 21:00N 51°48' E 004°39'0 0.0
2017-Apr-21 20:30N 51°48' E 004°39'0 0.0
2017-Apr-21 20:00N 51°48' E 004°39'0 0.0
2017-Apr-21 19:30N 51°48' E 004°39'0 0.0
2017-Apr-21 19:00N 51°48' E 004°39'0 0.0
2017-Apr-21 18:31N 51°48' E 004°39'0 0.0
2017-Apr-21 18:00N 51°48' E 004°39'0 0.0
2017-Apr-21 17:27N 51°48' E 004°39'0 0.0
2017-Apr-21 17:01N 51°48' E 004°39'0 0.0
2017-Apr-21 16:31N 51°48' E 004°39'0 0.0
2017-Apr-21 16:01N 51°48' E 004°39'0 0.0
2017-Apr-21 15:31N 51°48' E 004°39'0 0.0
2017-Apr-21 15:01N 51°48' E 004°39'0 0.0
2017-Apr-21 14:30N 51°48' E 004°39'0 0.0
2017-Apr-21 13:23N 51°48' E 004°39'0 0.0
2017-Apr-21 12:49N 51°48' E 004°39'0 0.0
2017-Apr-21 12:29N 51°48' E 004°39'0 0.0
2017-Apr-21 12:01N 51°48' E 004°39'0 0.0
2017-Apr-21 11:31N 51°48' E 004°39'0 0.0
2017-Apr-21 11:01N 51°48' E 004°39'0 0.0
2017-Apr-21 10:31N 51°48' E 004°39'0 0.0
2017-Apr-21 10:01N 51°48' E 004°39'0 0.0
2017-Apr-21 09:31N 51°48' E 004°39'0 0.0
2017-Apr-21 09:01N 51°48' E 004°39'0 0.0
2017-Apr-21 08:31N 51°48' E 004°39'0 0.0
2017-Apr-21 08:00N 51°48' E 004°39'0 0.0
2017-Apr-21 07:30N 51°48' E 004°39'0 0.0
2017-Apr-21 07:01N 51°48' E 004°39'0 0.0
2017-Apr-21 06:28N 51°48' E 004°39'0 0.0
2017-Apr-21 05:58N 51°48' E 004°39'0 0.0
2017-Apr-21 05:30N 51°48' E 004°39'0 0.0
2017-Apr-21 05:00N 51°48' E 004°39'0 0.0
2017-Apr-21 04:30N 51°48' E 004°39'0 0.0
2017-Apr-21 04:00N 51°48' E 004°39'0 0.0
2017-Apr-21 03:31N 51°48' E 004°39'0 0.0
2017-Apr-21 03:00N 51°48' E 004°39'0 0.0
2017-Apr-21 02:30N 51°48' E 004°39'0 0.0
2017-Apr-21 02:01N 51°48' E 004°39'0 0.0
2017-Apr-21 01:31N 51°48' E 004°39'0 0.0
2017-Apr-21 01:00N 51°48' E 004°39'0 0.0
2017-Apr-21 00:30N 51°48' E 004°39'0 0.0
2017-Apr-21 00:00N 51°48' E 004°39'0 0.0
2017-Apr-20 23:30N 51°48' E 004°39'0 0.0
2017-Apr-20 23:01N 51°48' E 004°39'0 0.0
2017-Apr-20 22:31N 51°48' E 004°39'0 0.0
2017-Apr-20 22:01N 51°48' E 004°39'0 0.0
2017-Apr-20 21:30N 51°48' E 004°39'0 0.0
2017-Apr-20 21:01N 51°48' E 004°39'0 0.0
2017-Apr-20 20:31N 51°48' E 004°39'0 0.0
2017-Apr-20 20:01N 51°48' E 004°39'0 0.0
2017-Apr-20 19:31N 51°48' E 004°39'0 0.0
2017-Apr-20 19:01N 51°48' E 004°39'0 0.0
2017-Apr-20 18:31N 51°48' E 004°39'0 0.0
2017-Apr-20 18:00N 51°48' E 004°39'0 0.0
2017-Apr-20 17:30N 51°48' E 004°39'0 0.0
2017-Apr-20 17:01N 51°48' E 004°39'0 0.0
2017-Apr-20 16:30N 51°48' E 004°39'0 0.0
2017-Apr-20 16:01N 51°48' E 004°39'0 0.0
2017-Apr-20 15:31N 51°48' E 004°39'0 0.0
2017-Apr-20 15:00N 51°48' E 004°39'0 0.0
2017-Apr-20 14:31N 51°48' E 004°39'0 0.0
2017-Apr-20 13:31N 51°48' E 004°39'0 0.0
2017-Apr-20 13:01N 51°48' E 004°39'0 0.0
2017-Apr-20 12:30N 51°48' E 004°39'0 0.0
2017-Apr-20 12:01N 51°48' E 004°39'0 0.0
2017-Apr-20 11:31N 51°48' E 004°39'0 0.0
2017-Apr-20 11:00N 51°48' E 004°39'0 0.0
2017-Apr-20 10:30N 51°48' E 004°39'0 0.0
2017-Apr-20 10:01N 51°48' E 004°39'0 0.0
2017-Apr-20 09:30N 51°48' E 004°39'0 0.0
2017-Apr-20 09:00N 51°48' E 004°39'0 0.0
2017-Apr-20 08:30N 51°48' E 004°39'0 0.0
2017-Apr-20 07:49N 51°48' E 004°39'0 0.0
2017-Apr-20 07:31N 51°48' E 004°39'0 0.0
2017-Apr-20 06:43N 51°48' E 004°39'0 0.0
2017-Apr-20 06:27N 51°48' E 004°39'0 0.0
2017-Apr-20 06:01N 51°48' E 004°39'0 0.0
2017-Apr-20 05:31N 51°48' E 004°39'0 0.0
2017-Apr-20 05:00N 51°48' E 004°39'0 0.0
2017-Apr-20 04:31N 51°48' E 004°39'0 0.0
2017-Apr-20 04:00N 51°48' E 004°39'0 0.0
2017-Apr-20 03:27N 51°48' E 004°39'0 0.0
2017-Apr-20 03:00N 51°48' E 004°39'0 0.0
2017-Apr-20 02:30N 51°48' E 004°39'0 0.0
2017-Apr-20 02:00N 51°48' E 004°39'0 0.0
2017-Apr-20 01:30N 51°48' E 004°39'0 0.0
2017-Apr-20 01:00N 51°48' E 004°39'0 0.0
2017-Apr-20 00:30N 51°48' E 004°39'0 0.0
2017-Apr-20 00:00N 51°48' E 004°39'0 0.0
2017-Apr-19 23:30N 51°48' E 004°39'0 0.0
2017-Apr-19 23:00N 51°48' E 004°39'0 0.0
2017-Apr-19 22:30N 51°48' E 004°39'0 0.0
2017-Apr-19 22:00N 51°48' E 004°39'0 0.0
2017-Apr-19 21:30N 51°48' E 004°39'0 0.0
2017-Apr-19 20:53N 51°48' E 004°39'0 0.0
2017-Apr-19 20:30N 51°48' E 004°39'0 0.0
2017-Apr-19 20:00N 51°48' E 004°39'0 0.0
2017-Apr-19 19:30N 51°48' E 004°39'0 0.0
2017-Apr-19 18:55N 51°48' E 004°39'0 0.0
2017-Apr-19 18:30N 51°48' E 004°39'0 0.0
2017-Apr-19 18:00N 51°48' E 004°39'0 0.0
2017-Apr-19 17:30N 51°48' E 004°39'0 0.0
2017-Apr-19 17:01N 51°48' E 004°39'0 0.0
2017-Apr-19 16:30N 51°48' E 004°39'0 0.0
2017-Apr-19 16:00N 51°48' E 004°39'0 0.0
2017-Apr-19 15:31N 51°48' E 004°39'0 0.0
2017-Apr-19 15:00N 51°48' E 004°39'0 0.0
2017-Apr-19 14:30N 51°48' E 004°39'0 0.0
2017-Apr-19 13:30N 51°48' E 004°39'0 0.0
2017-Apr-19 13:00N 51°48' E 004°39'0 0.0
2017-Apr-19 12:22N 51°48' E 004°39'0 0.0
2017-Apr-19 12:00N 51°48' E 004°39'0 0.0
2017-Apr-19 11:30N 51°48' E 004°39'0 0.0
2017-Apr-19 11:00N 51°48' E 004°39'0 0.0
2017-Apr-19 10:30N 51°48' E 004°39'0 0.0
2017-Apr-19 10:01N 51°48' E 004°39'0 0.0
2017-Apr-19 09:27N 51°48' E 004°39'0 0.0
2017-Apr-19 09:00N 51°48' E 004°39'0 0.0
2017-Apr-19 08:31N 51°48' E 004°39'0 0.0
2017-Apr-19 08:01N 51°48' E 004°39'0 0.0
2017-Apr-19 07:30N 51°48' E 004°39'0 0.0
2017-Apr-19 07:00N 51°48' E 004°39'0 0.0
2017-Apr-19 06:30N 51°48' E 004°39'0 0.0
2017-Apr-19 06:00N 51°48' E 004°39'0 0.0
2017-Apr-19 05:26N 51°48' E 004°39'0 0.0
2017-Apr-19 05:01N 51°48' E 004°39'0 0.0
2017-Apr-19 04:31N 51°48' E 004°39'0 0.0
2017-Apr-19 04:01N 51°48' E 004°39'0 0.0
2017-Apr-19 03:31N 51°48' E 004°39'0 0.0
2017-Apr-19 03:01N 51°48' E 004°39'0 0.0
2017-Apr-19 02:31N 51°48' E 004°39'0 0.0
2017-Apr-19 02:01N 51°48' E 004°39'0 0.0
2017-Apr-19 01:31N 51°48' E 004°39'0 0.0
2017-Apr-19 01:00N 51°48' E 004°39'0 0.0
2017-Apr-19 00:30N 51°48' E 004°39'0 0.0
2017-Apr-19 00:01N 51°48' E 004°39'0 0.0
2017-Apr-18 23:31N 51°48' E 004°39'0 0.0
2017-Apr-18 23:01N 51°48' E 004°39'0 0.0
2017-Apr-18 22:31N 51°48' E 004°39'0 0.0
2017-Apr-18 21:59N 51°48' E 004°39'0 0.0
2017-Apr-18 21:30N 51°48' E 004°39'0 0.0
2017-Apr-18 21:01N 51°48' E 004°39'0 0.0
2017-Apr-18 20:30N 51°48' E 004°39'0 0.0
2017-Apr-18 20:00N 51°48' E 004°39'0 0.0
2017-Apr-18 19:30N 51°48' E 004°39'0 0.0
2017-Apr-18 19:01N 51°48' E 004°39'0 0.0
2017-Apr-18 18:31N 51°48' E 004°39'0 0.3
2017-Apr-18 17:58N 51°48' E 004°38'1 1.9
2017-Apr-18 17:30N 51°48' E 004°37'4 7.6
2017-Apr-18 17:00N 51°50' E 004°32'5 9.6
2017-Apr-18 16:30N 51°51' E 004°24'4 8.1
2017-Apr-18 16:01N 51°53' E 004°19'3 6.2
2017-Apr-18 15:30N 51°53' E 004°24'1 1.1
2017-Apr-18 15:00N 51°53' E 004°25'0 0.0
2017-Apr-18 14:30N 51°53' E 004°25'0 0.0
2017-Apr-18 13:30N 51°53' E 004°25'0 0.0
2017-Apr-18 12:54N 51°53' E 004°25'0 0.0
2017-Apr-18 12:29N 51°53' E 004°25'0 0.0
2017-Apr-18 11:59N 51°53' E 004°25'0 0.0
2017-Apr-18 11:29N 51°53' E 004°25'0 0.0
2017-Apr-18 10:58N 51°53' E 004°25'0 0.0
2017-Apr-18 10:29N 51°53' E 004°25'0 0.0
2017-Apr-18 09:55N 51°53' E 004°25'0 0.0
2017-Apr-18 09:28N 51°53' E 004°25'0 0.0
2017-Apr-18 08:59N 51°53' E 004°25'0 0.0
2017-Apr-18 08:31N 51°53' E 004°25'0 0.0
2017-Apr-18 08:00N 51°53' E 004°25'0 0.0
2017-Apr-18 07:30N 51°53' E 004°25'0 0.0
2017-Apr-18 07:00N 51°53' E 004°25'0 0.0
2017-Apr-18 06:29N 51°53' E 004°25'0 0.0
2017-Apr-18 06:00N 51°53' E 004°25'0 0.0
2017-Apr-18 05:29N 51°53' E 004°25'0 0.0
2017-Apr-18 04:59N 51°53' E 004°25'0 0.0
2017-Apr-18 04:29N 51°53' E 004°25'0 0.0
2017-Apr-18 03:58N 51°53' E 004°25'0 0.0
2017-Apr-18 03:29N 51°53' E 004°25'0 0.0
2017-Apr-18 02:58N 51°53' E 004°25'0 0.0
2017-Apr-18 02:28N 51°53' E 004°25'0 0.0
2017-Apr-18 01:58N 51°53' E 004°25'0 0.0
2017-Apr-18 01:30N 51°53' E 004°25'0 0.0
2017-Apr-18 01:00N 51°53' E 004°25'0 0.0
2017-Apr-18 00:30N 51°53' E 004°25'0 0.0
2017-Apr-18 00:00N 51°53' E 004°25'0 0.0
2017-Apr-17 23:29N 51°53' E 004°25'0 0.0
2017-Apr-17 22:54N 51°53' E 004°25'0 0.0
2017-Apr-17 22:29N 51°53' E 004°25'0 0.0
2017-Apr-17 21:59N 51°53' E 004°25'0 0.0
2017-Apr-17 21:29N 51°53' E 004°25'0 0.0
2017-Apr-17 20:59N 51°53' E 004°25'0 0.0
2017-Apr-17 20:29N 51°53' E 004°25'0 0.0
2017-Apr-17 19:58N 51°53' E 004°25'0 0.0
2017-Apr-17 19:28N 51°53' E 004°25'0 0.0
2017-Apr-17 18:58N 51°53' E 004°25'0 0.0
2017-Apr-17 18:30N 51°53' E 004°25'0 0.0
2017-Apr-17 18:00N 51°53' E 004°25'0 0.0
2017-Apr-17 17:30N 51°53' E 004°25'0 0.0
2017-Apr-17 17:00N 51°53' E 004°25'0 0.0
2017-Apr-17 16:29N 51°53' E 004°25'0 0.0
2017-Apr-17 16:00N 51°53' E 004°25'0 0.0
2017-Apr-17 15:29N 51°53' E 004°25'0 0.0
2017-Apr-17 14:59N 51°53' E 004°25'0 0.0
2017-Apr-17 14:29N 51°53' E 004°25'0 0.0
2017-Apr-17 13:29N 51°53' E 004°25'0 0.0
2017-Apr-17 12:58N 51°53' E 004°25'0 0.0
2017-Apr-17 12:28N 51°53' E 004°25'0 0.0
2017-Apr-17 12:00N 51°53' E 004°25'0 0.0
2017-Apr-17 11:30N 51°53' E 004°25'0 0.0
2017-Apr-17 11:00N 51°53' E 004°25'0 0.0
2017-Apr-17 10:30N 51°53' E 004°25'0 0.0
2017-Apr-17 10:00N 51°53' E 004°25'0 0.0
2017-Apr-17 09:29N 51°53' E 004°25'0 0.0
2017-Apr-17 09:00N 51°53' E 004°25'0 0.0
2017-Apr-17 08:29N 51°53' E 004°25'0 0.0
2017-Apr-17 07:59N 51°53' E 004°25'0 0.0
2017-Apr-17 07:28N 51°53' E 004°25'0 0.0
2017-Apr-17 06:58N 51°53' E 004°25'0 0.0
2017-Apr-17 06:29N 51°53' E 004°25'0 0.0
2017-Apr-17 05:58N 51°53' E 004°25'0 0.0
2017-Apr-17 05:28N 51°53' E 004°25'0 0.0
2017-Apr-17 05:00N 51°53' E 004°25'0 0.0
2017-Apr-17 04:30N 51°53' E 004°25'0 0.0
2017-Apr-17 04:00N 51°53' E 004°25'0 0.0
2017-Apr-17 03:30N 51°53' E 004°25'0 0.0
2017-Apr-17 03:00N 51°53' E 004°25'0 0.0
2017-Apr-17 02:30N 51°53' E 004°25'0 0.0
2017-Apr-17 01:53N 51°53' E 004°25'0 0.0
2017-Apr-17 01:29N 51°53' E 004°25'0 0.0
2017-Apr-17 00:59N 51°53' E 004°25'0 0.0
2017-Apr-17 00:28N 51°53' E 004°25'0 0.0
2017-Apr-16 23:59N 51°53' E 004°25'0 0.0
2017-Apr-16 23:28N 51°53' E 004°25'0 0.0
2017-Apr-16 22:58N 51°53' E 004°25'0 0.0
2017-Apr-16 22:28N 51°53' E 004°25'0 0.0
2017-Apr-16 22:00N 51°53' E 004°25'0 0.0
2017-Apr-16 21:30N 51°53' E 004°25'0 0.0
2017-Apr-16 21:00N 51°53' E 004°25'0 0.0
2017-Apr-16 20:30N 51°53' E 004°25'0 0.0
2017-Apr-16 20:00N 51°53' E 004°25'0 0.0
2017-Apr-16 19:30N 51°53' E 004°25'0 0.0
2017-Apr-16 19:00N 51°53' E 004°25'0 0.0
2017-Apr-16 18:29N 51°53' E 004°25'0 0.0
2017-Apr-16 17:59N 51°53' E 004°25'0 0.0
2017-Apr-16 17:28N 51°53' E 004°25'0 0.0
2017-Apr-16 16:59N 51°53' E 004°25'0 0.0
2017-Apr-16 16:25N 51°53' E 004°25'0 0.0
2017-Apr-16 15:58N 51°53' E 004°25'  
Track history (hours):
 
Tides and Currents Weather Stations Pressure Air Temp Water Temp Dewpoint Dewpoint Depression Visibility Wind Speed Wind Dir Waves Ship Positions

Virginiborg

Last reported at 2017-Apr-26 15:48 UTC. Time now 2017-Apr-28 17:59 UTC.
Position N 60°21' E 019°01'.

Length 132 m; draft 6.3 m.

Type: Cargo ship. MMSI: 244632000.

Date/timePositionNaut miles runAvg speedWind from/ knotsBaromVisibWave heightAir tempDewpointWater temp
2017-Apr-26 15:48N 60°21' E 019°01'411.8
2017-Apr-26 15:30N 60°18' E 019°01'611.7
2017-Apr-26 15:00N 60°12' E 019°04'711.9
2017-Apr-26 14:26N 60°07' E 019°13'1111.9
2017-Apr-26 13:30N 59°58' E 019°28'611.3
2017-Apr-26 12:59N 59°54' E 019°35'29210.7
2017-Apr-25 09:38N 55°36' E 015°19'212.7
2017-Apr-25 09:30N 55°36' E 015°16'612.6
2017-Apr-25 09:00N 55°33' E 015°07'612.6
2017-Apr-25 08:30N 55°29' E 014°57'612.6
2017-Apr-25 08:00N 55°26' E 014°47'612.4
2017-Apr-25 07:31N 55°23' E 014°38'612.4
2017-Apr-25 07:01N 55°18' E 014°31'612.0
2017-Apr-25 06:30N 55°14' E 014°25'510.9
2017-Apr-25 06:01N 55°10' E 014°18'611.6
2017-Apr-25 05:30N 55°10' E 014°07'611.5
2017-Apr-25 04:57N 55°10' E 013°57'2911.6
2017-Apr-25 02:26N 55°14' E 013°06'511.9
2017-Apr-25 02:00N 55°14' E 012°57'611.8
2017-Apr-25 01:29N 55°16' E 012°46'611.7
2017-Apr-25 01:00N 55°18' E 012°37'611.7
2017-Apr-25 00:30N 55°24' E 012°39'611.6
2017-Apr-25 00:00N 55°30' E 012°41'611.2
2017-Apr-24 23:30N 55°35' E 012°42'612.1
2017-Apr-24 23:00N 55°41' E 012°41'612.2
2017-Apr-24 22:30N 55°47' E 012°41'612.3
2017-Apr-24 22:00N 55°54' E 012°39'612.3
2017-Apr-24 21:30N 55°60' E 012°38'611.5
2017-Apr-24 21:00N 56°05' E 012°35'612.6
2017-Apr-24 20:30N 56°09' E 012°26'612.2
2017-Apr-24 20:00N 56°12' E 012°17'7211.6
2017-Apr-24 13:50N 57°19' E 011°28'411.7
2017-Apr-24 13:29N 57°23' E 011°26'511.3
2017-Apr-24 13:00N 57°28' E 011°22'611.8
2017-Apr-24 12:30N 57°32' E 011°14'611.6
2017-Apr-24 12:01N 57°36' E 011°06'612.0
2017-Apr-24 11:30N 57°40' E 010°58'611.9
2017-Apr-24 11:00N 57°44' E 010°50'611.8
2017-Apr-24 10:30N 57°47' E 010°41'713.3
2017-Apr-24 10:00N 57°47' E 010°28'813.0
2017-Apr-24 09:23N 57°45' E 010°14'7112.6
2017-Apr-24 03:42N 57°11' E 008°17'212.1
2017-Apr-24 03:30N 57°09' E 008°14'611.8
2017-Apr-24 03:00N 57°04' E 008°08'611.7
2017-Apr-24 02:30N 56°59' E 008°03'611.7
2017-Apr-24 01:59N 56°54' E 007°57'611.7
2017-Apr-24 01:30N 56°49' E 007°52'242 9.8
2017-Apr-23 00:44N 53°15' E 004°35'3 9.9
2017-Apr-23 00:25N 53°12' E 004°33'4 9.8
2017-Apr-23 00:00N 53°08' E 004°30'5 9.8
2017-Apr-22 23:30N 53°04' E 004°26'5 9.6
2017-Apr-22 22:59N 52°60' E 004°22'5 9.2
2017-Apr-22 22:26N 52°55' E 004°18'4 9.3
2017-Apr-22 22:00N 52°52' E 004°15'13 8.9
2017-Apr-22 20:36N 52°41' E 004°04'1 8.7
2017-Apr-22 20:28N 52°40' E 004°03'16 8.7
2017-Apr-22 18:41N 52°26' E 003°54'3 8.8
2017-Apr-22 18:23N 52°23' E 003°53'3 8.5
2017-Apr-22 18:00N 52°20' E 003°52'4 8.5
2017-Apr-22 17:30N 52°16' E 003°52'5 9.0
2017-Apr-22 17:00N 52°11' E 003°53'5 9.0
2017-Apr-22 16:30N 52°07' E 003°55'4 8.8
2017-Apr-22 16:00N 52°02' E 003°54'510.7
2017-Apr-22 15:30N 51°60' E 004°02'612.9
2017-Apr-22 15:01N 51°57' E 004°11'713.1
2017-Apr-22 14:31N 51°53' E 004°19'9 9.2
2017-Apr-22 13:31N 51°50' E 004°33'4 7.3
2017-Apr-22 13:01N 51°48' E 004°38'0 0.6
2017-Apr-22 12:27N 51°48' E 004°39'0 0.0
2017-Apr-22 12:01N 51°48' E 004°39'0 0.0
2017-Apr-22 11:31N 51°48' E 004°39'0 0.0
2017-Apr-22 11:01N 51°48' E 004°39'0 0.0
2017-Apr-22 10:30N 51°48' E 004°39'0 0.0
2017-Apr-22 10:01N 51°48' E 004°39'0 0.0
2017-Apr-22 09:30N 51°48' E 004°39'0 0.0
2017-Apr-22 09:00N 51°48' E 004°39'0 0.0
2017-Apr-22 08:31N 51°48' E 004°39'0 0.0
2017-Apr-22 08:00N 51°48' E 004°39'0 0.0
2017-Apr-22 07:30N 51°48' E 004°39'0 0.0
2017-Apr-22 07:01N 51°48' E 004°39'0 0.0
2017-Apr-22 06:31N 51°48' E 004°39'0 0.0
2017-Apr-22 06:00N 51°48' E 004°39'0 0.0
2017-Apr-22 05:30N 51°48' E 004°39'0 0.0
2017-Apr-22 05:00N 51°48' E 004°39'0 0.0
2017-Apr-22 04:30N 51°48' E 004°39'0 0.0
2017-Apr-22 04:01N 51°48' E 004°39'0 0.0
2017-Apr-22 03:29N 51°48' E 004°39'0 0.0
2017-Apr-22 03:00N 51°48' E 004°39'0 0.0
2017-Apr-22 02:31N 51°48' E 004°39'0 0.0
2017-Apr-22 02:01N 51°48' E 004°39'0 0.0
2017-Apr-22 01:31N 51°48' E 004°39'0 0.0
2017-Apr-22 01:00N 51°48' E 004°39'0 0.0
2017-Apr-22 00:31N 51°48' E 004°39'0 0.0
2017-Apr-22 00:01N 51°48' E 004°39'0 0.0
2017-Apr-21 23:31N 51°48' E 004°39'0 0.0
2017-Apr-21 23:00N 51°48' E 004°39'0 0.0
2017-Apr-21 22:31N 51°48' E 004°39'0 0.0
2017-Apr-21 22:01N 51°48' E 004°39'0 0.0
2017-Apr-21 21:31N 51°48' E 004°39'0 0.0
2017-Apr-21 21:00N 51°48' E 004°39'0 0.0
2017-Apr-21 20:30N 51°48' E 004°39'0 0.0
2017-Apr-21 20:00N 51°48' E 004°39'0 0.0
2017-Apr-21 19:30N 51°48' E 004°39'0 0.0
2017-Apr-21 19:00N 51°48' E 004°39'0 0.0
2017-Apr-21 18:31N 51°48' E 004°39'0 0.0
2017-Apr-21 18:00N 51°48' E 004°39'0 0.0
2017-Apr-21 17:27N 51°48' E 004°39'0 0.0
2017-Apr-21 17:01N 51°48' E 004°39'0 0.0
2017-Apr-21 16:31N 51°48' E 004°39'0 0.0
2017-Apr-21 16:01N 51°48' E 004°39'0 0.0
2017-Apr-21 15:31N 51°48' E 004°39'0 0.0
2017-Apr-21 15:01N 51°48' E 004°39'0 0.0
2017-Apr-21 14:30N 51°48' E 004°39'0 0.0
2017-Apr-21 13:23N 51°48' E 004°39'0 0.0
2017-Apr-21 12:49N 51°48' E 004°39'0 0.0
2017-Apr-21 12:29N 51°48' E 004°39'0 0.0
2017-Apr-21 12:01N 51°48' E 004°39'0 0.0
2017-Apr-21 11:31N 51°48' E 004°39'0 0.0
2017-Apr-21 11:01N 51°48' E 004°39'0 0.0
2017-Apr-21 10:31N 51°48' E 004°39'0 0.0
2017-Apr-21 10:01N 51°48' E 004°39'0 0.0
2017-Apr-21 09:31N 51°48' E 004°39'0 0.0
2017-Apr-21 09:01N 51°48' E 004°39'0 0.0
2017-Apr-21 08:31N 51°48' E 004°39'0 0.0
2017-Apr-21 08:00N 51°48' E 004°39'0 0.0
2017-Apr-21 07:30N 51°48' E 004°39'0 0.0
2017-Apr-21 07:01N 51°48' E 004°39'0 0.0
2017-Apr-21 06:28N 51°48' E 004°39'0 0.0
2017-Apr-21 05:58N 51°48' E 004°39'0 0.0
2017-Apr-21 05:30N 51°48' E 004°39'0 0.0
2017-Apr-21 05:00N 51°48' E 004°39'0 0.0
2017-Apr-21 04:30N 51°48' E 004°39'0 0.0
2017-Apr-21 04:00N 51°48' E 004°39'0 0.0
2017-Apr-21 03:31N 51°48' E 004°39'0 0.0
2017-Apr-21 03:00N 51°48' E 004°39'0 0.0
2017-Apr-21 02:30N 51°48' E 004°39'0 0.0
2017-Apr-21 02:01N 51°48' E 004°39'0 0.0
2017-Apr-21 01:31N 51°48' E 004°39'0 0.0
2017-Apr-21 01:00N 51°48' E 004°39'0 0.0
2017-Apr-21 00:30N 51°48' E 004°39'0 0.0
2017-Apr-21 00:00N 51°48' E 004°39'0 0.0
2017-Apr-20 23:30N 51°48' E 004°39'0 0.0
2017-Apr-20 23:01N 51°48' E 004°39'0 0.0
2017-Apr-20 22:31N 51°48' E 004°39'0 0.0
2017-Apr-20 22:01N 51°48' E 004°39'0 0.0
2017-Apr-20 21:30N 51°48' E 004°39'0 0.0
2017-Apr-20 21:01N 51°48' E 004°39'0 0.0
2017-Apr-20 20:31N 51°48' E 004°39'0 0.0
2017-Apr-20 20:01N 51°48' E 004°39'0 0.0
2017-Apr-20 19:31N 51°48' E 004°39'0 0.0
2017-Apr-20 19:01N 51°48' E 004°39'0 0.0
2017-Apr-20 18:31N 51°48' E 004°39'0 0.0
2017-Apr-20 18:00N 51°48' E 004°39'0 0.0
2017-Apr-20 17:30N 51°48' E 004°39'0 0.0
2017-Apr-20 17:01N 51°48' E 004°39'0 0.0
2017-Apr-20 16:30N 51°48' E 004°39'0 0.0
2017-Apr-20 16:01N 51°48' E 004°39'0 0.0
2017-Apr-20 15:31N 51°48' E 004°39'0 0.0
2017-Apr-20 15:00N 51°48' E 004°39'0 0.0
2017-Apr-20 14:31N 51°48' E 004°39'0 0.0
2017-Apr-20 13:31N 51°48' E 004°39'0 0.0
2017-Apr-20 13:01N 51°48' E 004°39'0 0.0
2017-Apr-20 12:30N 51°48' E 004°39'0 0.0
2017-Apr-20 12:01N 51°48' E 004°39'0 0.0
2017-Apr-20 11:31N 51°48' E 004°39'0 0.0
2017-Apr-20 11:00N 51°48' E 004°39'0 0.0
2017-Apr-20 10:30N 51°48' E 004°39'0 0.0
2017-Apr-20 10:01N 51°48' E 004°39'0 0.0
2017-Apr-20 09:30N 51°48' E 004°39'0 0.0
2017-Apr-20 09:00N 51°48' E 004°39'0 0.0
2017-Apr-20 08:30N 51°48' E 004°39'0 0.0
2017-Apr-20 07:49N 51°48' E 004°39'0 0.0
2017-Apr-20 07:31N 51°48' E 004°39'0 0.0
2017-Apr-20 06:43N 51°48' E 004°39'0 0.0
2017-Apr-20 06:27N 51°48' E 004°39'0 0.0
2017-Apr-20 06:01N 51°48' E 004°39'0 0.0
2017-Apr-20 05:31N 51°48' E 004°39'0 0.0
2017-Apr-20 05:00N 51°48' E 004°39'0 0.0
2017-Apr-20 04:31N 51°48' E 004°39'0 0.0
2017-Apr-20 04:00N 51°48' E 004°39'0 0.0
2017-Apr-20 03:27N 51°48' E 004°39'0 0.0
2017-Apr-20 03:00N 51°48' E 004°39'0 0.0
2017-Apr-20 02:30N 51°48' E 004°39'0 0.0
2017-Apr-20 02:00N 51°48' E 004°39'0 0.0
2017-Apr-20 01:30N 51°48' E 004°39'0 0.0
2017-Apr-20 01:00N 51°48' E 004°39'0 0.0
2017-Apr-20 00:30N 51°48' E 004°39'0 0.0
2017-Apr-20 00:00N 51°48' E 004°39'0 0.0
2017-Apr-19 23:30N 51°48' E 004°39'0 0.0
2017-Apr-19 23:00N 51°48' E 004°39'0 0.0
2017-Apr-19 22:30N 51°48' E 004°39'0 0.0
2017-Apr-19 22:00N 51°48' E 004°39'0 0.0
2017-Apr-19 21:30N 51°48' E 004°39'0 0.0
2017-Apr-19 20:53N 51°48' E 004°39'0 0.0
2017-Apr-19 20:30N 51°48' E 004°39'0 0.0
2017-Apr-19 20:00N 51°48' E 004°39'0 0.0
2017-Apr-19 19:30N 51°48' E 004°39'0 0.0
2017-Apr-19 18:55N 51°48' E 004°39'0 0.0
2017-Apr-19 18:30N 51°48' E 004°39'0 0.0
2017-Apr-19 18:00N 51°48' E 004°39'0 0.0
2017-Apr-19 17:30N 51°48' E 004°39'0 0.0
2017-Apr-19 17:01N 51°48' E 004°39'0 0.0
2017-Apr-19 16:30N 51°48' E 004°39'0 0.0
2017-Apr-19 16:00N 51°48' E 004°39'0 0.0
2017-Apr-19 15:31N 51°48' E 004°39'0 0.0
2017-Apr-19 15:00N 51°48' E 004°39'0 0.0
2017-Apr-19 14:30N 51°48' E 004°39'0 0.0
2017-Apr-19 13:30N 51°48' E 004°39'0 0.0
2017-Apr-19 13:00N 51°48' E 004°39'0 0.0
2017-Apr-19 12:22N 51°48' E 004°39'0 0.0
2017-Apr-19 12:00N 51°48' E 004°39'0 0.0
2017-Apr-19 11:30N 51°48' E 004°39'0 0.0
2017-Apr-19 11:00N 51°48' E 004°39'0 0.0
2017-Apr-19 10:30N 51°48' E 004°39'0 0.0
2017-Apr-19 10:01N 51°48' E 004°39'0 0.0
2017-Apr-19 09:27N 51°48' E 004°39'0 0.0
2017-Apr-19 09:00N 51°48' E 004°39'0 0.0
2017-Apr-19 08:31N 51°48' E 004°39'0 0.0
2017-Apr-19 08:01N 51°48' E 004°39'0 0.0
2017-Apr-19 07:30N 51°48' E 004°39'0 0.0
2017-Apr-19 07:00N 51°48' E 004°39'0 0.0
2017-Apr-19 06:30N 51°48' E 004°39'0 0.0
2017-Apr-19 06:00N 51°48' E 004°39'0 0.0
2017-Apr-19 05:26N 51°48' E 004°39'0 0.0
2017-Apr-19 05:01N 51°48' E 004°39'0 0.0
2017-Apr-19 04:31N 51°48' E 004°39'0 0.0
2017-Apr-19 04:01N 51°48' E 004°39'0 0.0
2017-Apr-19 03:31N 51°48' E 004°39'0 0.0
2017-Apr-19 03:01N 51°48' E 004°39'0 0.0
2017-Apr-19 02:31N 51°48' E 004°39'0 0.0
2017-Apr-19 02:01N 51°48' E 004°39'0 0.0
2017-Apr-19 01:31N 51°48' E 004°39'0 0.0
2017-Apr-19 01:00N 51°48' E 004°39'0 0.0
2017-Apr-19 00:30N 51°48' E 004°39'0 0.0
2017-Apr-19 00:01N 51°48' E 004°39'0 0.0
2017-Apr-18 23:31N 51°48' E 004°39'0 0.0
2017-Apr-18 23:01N 51°48' E 004°39'0 0.0
2017-Apr-18 22:31N 51°48' E 004°39'0 0.0
2017-Apr-18 21:59N 51°48' E 004°39'0 0.0
2017-Apr-18 21:30N 51°48' E 004°39'0 0.0
2017-Apr-18 21:01N 51°48' E 004°39'0 0.0
2017-Apr-18 20:30N 51°48' E 004°39'0 0.0
2017-Apr-18 20:00N 51°48' E 004°39'0 0.0
2017-Apr-18 19:30N 51°48' E 004°39'0 0.0
2017-Apr-18 19:01N 51°48' E 004°39'0 0.0
2017-Apr-18 18:31N 51°48' E 004°39'0 0.3
2017-Apr-18 17:58N 51°48' E 004°38'1 1.9
2017-Apr-18 17:30N 51°48' E 004°37'4 7.6
2017-Apr-18 17:00N 51°50' E 004°32'5 9.6
2017-Apr-18 16:30N 51°51' E 004°24'4 8.1
2017-Apr-18 16:01N 51°53' E 004°19'3 6.2
2017-Apr-18 15:30N 51°53' E 004°24'1 1.1
2017-Apr-18 15:00N 51°53' E 004°25'0 0.0
2017-Apr-18 14:30N 51°53' E 004°25'0 0.0
2017-Apr-18 13:30N 51°53' E 004°25'0 0.0
2017-Apr-18 12:54N 51°53' E 004°25'0 0.0
2017-Apr-18 12:29N 51°53' E 004°25'0 0.0
2017-Apr-18 11:59N 51°53' E 004°25'0 0.0
2017-Apr-18 11:29N 51°53' E 004°25'0 0.0
2017-Apr-18 10:58N 51°53' E 004°25'0 0.0
2017-Apr-18 10:29N 51°53' E 004°25'0 0.0
2017-Apr-18 09:55N 51°53' E 004°25'0 0.0
2017-Apr-18 09:28N 51°53' E 004°25'0 0.0
2017-Apr-18 08:59N 51°53' E 004°25'0 0.0
2017-Apr-18 08:31N 51°53' E 004°25'0 0.0
2017-Apr-18 08:00N 51°53' E 004°25'0 0.0
2017-Apr-18 07:30N 51°53' E 004°25'0 0.0
2017-Apr-18 07:00N 51°53' E 004°25'0 0.0
2017-Apr-18 06:29N 51°53' E 004°25'0 0.0
2017-Apr-18 06:00N 51°53' E 004°25'0 0.0
2017-Apr-18 05:29N 51°53' E 004°25'0 0.0
2017-Apr-18 04:59N 51°53' E 004°25'0 0.0
2017-Apr-18 04:29N 51°53' E 004°25'0 0.0
2017-Apr-18 03:58N 51°53' E 004°25'0 0.0
2017-Apr-18 03:29N 51°53' E 004°25'0 0.0
2017-Apr-18 02:58N 51°53' E 004°25'0 0.0
2017-Apr-18 02:28N 51°53' E 004°25'0 0.0
2017-Apr-18 01:58N 51°53' E 004°25'0 0.0
2017-Apr-18 01:30N 51°53' E 004°25'0 0.0
2017-Apr-18 01:00N 51°53' E 004°25'0 0.0
2017-Apr-18 00:30N 51°53' E 004°25'0 0.0
2017-Apr-18 00:00N 51°53' E 004°25'0 0.0
2017-Apr-17 23:29N 51°53' E 004°25'0 0.0
2017-Apr-17 22:54N 51°53' E 004°25'0 0.0
2017-Apr-17 22:29N 51°53' E 004°25'0 0.0
2017-Apr-17 21:59N 51°53' E 004°25'0 0.0
2017-Apr-17 21:29N 51°53' E 004°25'0 0.0
2017-Apr-17 20:59N 51°53' E 004°25'0 0.0
2017-Apr-17 20:29N 51°53' E 004°25'0 0.0
2017-Apr-17 19:58N 51°53' E 004°25'0 0.0
2017-Apr-17 19:28N 51°53' E 004°25'0 0.0
2017-Apr-17 18:58N 51°53' E 004°25'0 0.0
2017-Apr-17 18:30N 51°53' E 004°25'0 0.0
2017-Apr-17 18:00N 51°53' E 004°25'0 0.0
2017-Apr-17 17:30N 51°53' E 004°25'0 0.0
2017-Apr-17 17:00N 51°53' E 004°25'0 0.0
2017-Apr-17 16:29N 51°53' E 004°25'0 0.0
2017-Apr-17 16:00N 51°53' E 004°25'0 0.0
2017-Apr-17 15:29N 51°53' E 004°25'0 0.0
2017-Apr-17 14:59N 51°53' E 004°25'0 0.0
2017-Apr-17 14:29N 51°53' E 004°25'0 0.0
2017-Apr-17 13:29N 51°53' E 004°25'0 0.0
2017-Apr-17 12:58N 51°53' E 004°25'0 0.0
2017-Apr-17 12:28N 51°53' E 004°25'0 0.0
2017-Apr-17 12:00N 51°53' E 004°25'0 0.0
2017-Apr-17 11:30N 51°53' E 004°25'0 0.0
2017-Apr-17 11:00N 51°53' E 004°25'0 0.0
2017-Apr-17 10:30N 51°53' E 004°25'0 0.0
2017-Apr-17 10:00N 51°53' E 004°25'0 0.0
2017-Apr-17 09:29N 51°53' E 004°25'0 0.0
2017-Apr-17 09:00N 51°53' E 004°25'0 0.0
2017-Apr-17 08:29N 51°53' E 004°25'0 0.0
2017-Apr-17 07:59N 51°53' E 004°25'0 0.0
2017-Apr-17 07:28N 51°53' E 004°25'0 0.0
2017-Apr-17 06:58N 51°53' E 004°25'0 0.0
2017-Apr-17 06:29N 51°53' E 004°25'0 0.0
2017-Apr-17 05:58N 51°53' E 004°25'0 0.0
2017-Apr-17 05:28N 51°53' E 004°25'0 0.0
2017-Apr-17 05:00N 51°53' E 004°25'0 0.0
2017-Apr-17 04:30N 51°53' E 004°25'0 0.0
2017-Apr-17 04:00N 51°53' E 004°25'0 0.0
2017-Apr-17 03:30N 51°53' E 004°25'0 0.0
2017-Apr-17 03:00N 51°53' E 004°25'0 0.0
2017-Apr-17 02:30N 51°53' E 004°25'0 0.0
2017-Apr-17 01:53N 51°53' E 004°25'0 0.0
2017-Apr-17 01:29N 51°53' E 004°25'0 0.0
2017-Apr-17 00:59N 51°53' E 004°25'0 0.0
2017-Apr-17 00:28N 51°53' E 004°25'0 0.0
2017-Apr-16 23:59N 51°53' E 004°25'0 0.0
2017-Apr-16 23:28N 51°53' E 004°25'0 0.0
2017-Apr-16 22:58N 51°53' E 004°25'0 0.0
2017-Apr-16 22:28N 51°53' E 004°25'0 0.0
2017-Apr-16 22:00N 51°53' E 004°25'0 0.0
2017-Apr-16 21:30N 51°53' E 004°25'0 0.0
2017-Apr-16 21:00N 51°53' E 004°25'0 0.0
2017-Apr-16 20:30N 51°53' E 004°25'0 0.0
2017-Apr-16 20:00N 51°53' E 004°25'0 0.0
2017-Apr-16 19:30N 51°53' E 004°25'0 0.0
2017-Apr-16 19:00N 51°53' E 004°25'0 0.0
2017-Apr-16 18:29N 51°53' E 004°25'0 0.0
2017-Apr-16 17:59N 51°53' E 004°25'0 0.0
2017-Apr-16 17:28N 51°53' E 004°25'0 0.0
2017-Apr-16 16:59N 51°53' E 004°25'0 0.0
2017-Apr-16 16:25N 51°53' E 004°25'0 0.0
2017-Apr-16 15:58N 51°53' E 004°25'  

Dump ship's entire track history